Erd, Hungary
Current Conditions -  °F | °C
As of 6:00 AM on Friday 28 Nov 2014 (Local Time) from LHBP Reporting Station
Freezing Drizzle Freezing Drizzle  
Wind Chill: 22°   Ceiling: 300
Heat Index: 30°   Visibility: 1.8mi
Dew Point: 30°   Wind: 9mph
Humidity: 100%   Direction: 80°E
Pressure: 30.09"   Gusts: NA
Location:  47.38°N, 18.91°E
Report Text: LHBP 280400Z 08008KT 3000 -FZDZ BR SCT001 OVC003 M01/M01 Q1019 NOSIG
Loading
Personal Weather Stations






























Interactive Weather Map New forecast layout! Learn more

10-Day Weather Forecast

Advertisements
Track Severe Weather on mobile